sensor_id;sensor_type;location;lat;lon;timestamp;temperature;humidity
15288;DHT22;7745;48.708;9.026;2023-12-28T00:01:45;4.10;99.90
15288;DHT22;7745;48.708;9.026;2023-12-28T00:04:12;4.00;99.90
15288;DHT22;7745;48.708;9.026;2023-12-28T00:06:39;3.90;99.90
15288;DHT22;7745;48.708;9.026;2023-12-28T00:09:07;3.80;99.90
15288;DHT22;7745;48.708;9.026;2023-12-28T00:11:35;3.80;99.90
15288;DHT22;7745;48.708;9.026;2023-12-28T00:14:01;3.70;99.90
15288;DHT22;7745;48.708;9.026;2023-12-28T00:16:30;3.70;99.90
15288;DHT22;7745;48.708;9.026;2023-12-28T00:18:59;3.70;99.90
15288;DHT22;7745;48.708;9.026;2023-12-28T00:21:27;3.70;99.90
15288;DHT22;7745;48.708;9.026;2023-12-28T00:23:54;3.70;99.90
15288;DHT22;7745;48.708;9.026;2023-12-28T00:26:20;3.80;99.90
15288;DHT22;7745;48.708;9.026;2023-12-28T00:28:49;3.90;99.90
15288;DHT22;7745;48.708;9.026;2023-12-28T00:31:15;4.00;99.90
15288;DHT22;7745;48.708;9.026;2023-12-28T00:33:42;4.10;99.90
15288;DHT22;7745;48.708;9.026;2023-12-28T00:36:09;4.10;99.90
15288;DHT22;7745;48.708;9.026;2023-12-28T00:38:36;4.20;99.90
15288;DHT22;7745;48.708;9.026;2023-12-28T00:41:02;4.20;99.90
15288;DHT22;7745;48.708;9.026;2023-12-28T00:43:29;4.30;99.90
15288;DHT22;7745;48.708;9.026;2023-12-28T00:45:57;4.30;99.90
15288;DHT22;7745;48.708;9.026;2023-12-28T00:48:24;4.30;99.90
15288;DHT22;7745;48.708;9.026;2023-12-28T00:50:51;4.40;99.90
15288;DHT22;7745;48.708;9.026;2023-12-28T00:53:17;4.50;99.90
15288;DHT22;7745;48.708;9.026;2023-12-28T00:55:45;4.50;99.90
15288;DHT22;7745;48.708;9.026;2023-12-28T00:58:12;4.50;99.90
15288;DHT22;7745;48.708;9.026;2023-12-28T01:00:38;5.20;99.90
15288;DHT22;7745;48.708;9.026;2023-12-28T01:03:07;4.50;99.90
15288;DHT22;7745;48.708;9.026;2023-12-28T01:05:33;4.30;99.90
15288;DHT22;7745;48.708;9.026;2023-12-28T01:08:00;4.20;99.90
15288;DHT22;7745;48.708;9.026;2023-12-28T01:10:27;4.00;99.90
15288;DHT22;7745;48.708;9.026;2023-12-28T01:12:54;4.00;99.90
15288;DHT22;7745;48.708;9.026;2023-12-28T01:15:21;4.00;99.90
15288;DHT22;7745;48.708;9.026;2023-12-28T01:17:48;4.60;99.90
15288;DHT22;7745;48.708;9.026;2023-12-28T01:20:16;4.00;99.90
15288;DHT22;7745;48.708;9.026;2023-12-28T01:22:43;3.90;99.90
15288;DHT22;7745;48.708;9.026;2023-12-28T01:25:09;3.80;99.90
15288;DHT22;7745;48.708;9.026;2023-12-28T01:27:36;3.70;99.90
15288;DHT22;7745;48.708;9.026;2023-12-28T01:30:04;3.70;99.90
15288;DHT22;7745;48.708;9.026;2023-12-28T01:32:31;3.70;99.90
15288;DHT22;7745;48.708;9.026;2023-12-28T01:34:58;3.80;99.90
15288;DHT22;7745;48.708;9.026;2023-12-28T01:37:26;4.00;99.90
15288;DHT22;7745;48.708;9.026;2023-12-28T01:39:56;4.10;99.90
15288;DHT22;7745;48.708;9.026;2023-12-28T01:42:22;4.00;99.90
15288;DHT22;7745;48.708;9.026;2023-12-28T01:44:49;3.80;99.90
15288;DHT22;7745;48.708;9.026;2023-12-28T01:47:16;3.70;99.90
15288;DHT22;7745;48.708;9.026;2023-12-28T01:49:43;3.60;99.90
15288;DHT22;7745;48.708;9.026;2023-12-28T01:52:11;3.50;99.90
15288;DHT22;7745;48.708;9.026;2023-12-28T01:54:39;3.40;99.90
15288;DHT22;7745;48.708;9.026;2023-12-28T01:57:06;3.40;99.90
15288;DHT22;7745;48.708;9.026;2023-12-28T01:59:33;3.50;99.90
15288;DHT22;7745;48.708;9.026;2023-12-28T02:02:00;3.60;99.90
15288;DHT22;7745;48.708;9.026;2023-12-28T02:04:27;4.00;99.90
15288;DHT22;7745;48.708;9.026;2023-12-28T02:06:56;3.80;99.90
15288;DHT22;7745;48.708;9.026;2023-12-28T02:09:24;3.80;99.90
15288;DHT22;7745;48.708;9.026;2023-12-28T02:11:52;3.80;99.90
15288;DHT22;7745;48.708;9.026;2023-12-28T02:14:20;3.80;99.90
15288;DHT22;7745;48.708;9.026;2023-12-28T02:16:50;3.80;99.90
15288;DHT22;7745;48.708;9.026;2023-12-28T02:19:25;3.90;99.90
15288;DHT22;7745;48.708;9.026;2023-12-28T02:21:58;3.90;99.90
15288;DHT22;7745;48.708;9.026;2023-12-28T02:24:25;3.90;99.90
15288;DHT22;7745;48.708;9.026;2023-12-28T02:26:53;3.80;99.90
15288;DHT22;7745;48.708;9.026;2023-12-28T02:29:20;3.70;99.90
15288;DHT22;7745;48.708;9.026;2023-12-28T02:31:53;3.50;99.90
15288;DHT22;7745;48.708;9.026;2023-12-28T02:34:29;3.40;99.90
15288;DHT22;7745;48.708;9.026;2023-12-28T02:36:59;3.40;99.90
15288;DHT22;7745;48.708;9.026;2023-12-28T02:39:28;3.30;99.90
15288;DHT22;7745;48.708;9.026;2023-12-28T02:41:57;3.20;99.90
15288;DHT22;7745;48.708;9.026;2023-12-28T02:44:24;3.20;99.90
15288;DHT22;7745;48.708;9.026;2023-12-28T02:46:51;3.20;99.90
15288;DHT22;7745;48.708;9.026;2023-12-28T02:49:18;3.20;99.90
15288;DHT22;7745;48.708;9.026;2023-12-28T02:51:44;3.30;99.90
15288;DHT22;7745;48.708;9.026;2023-12-28T02:54:11;3.40;99.90
15288;DHT22;7745;48.708;9.026;2023-12-28T02:56:39;3.40;99.90
15288;DHT22;7745;48.708;9.026;2023-12-28T02:59:08;3.40;99.90
15288;DHT22;7745;48.708;9.026;2023-12-28T03:01:35;3.40;99.90
15288;DHT22;7745;48.708;9.026;2023-12-28T03:04:02;3.50;99.90
15288;DHT22;7745;48.708;9.026;2023-12-28T03:06:28;3.80;99.90
15288;DHT22;7745;48.708;9.026;2023-12-28T03:08:55;4.00;99.90
15288;DHT22;7745;48.708;9.026;2023-12-28T03:11:22;4.20;99.90
15288;DHT22;7745;48.708;9.026;2023-12-28T03:13:48;4.10;99.90
15288;DHT22;7745;48.708;9.026;2023-12-28T03:16:17;3.90;99.90
15288;DHT22;7745;48.708;9.026;2023-12-28T03:18:44;3.80;99.90
15288;DHT22;7745;48.708;9.026;2023-12-28T03:21:10;3.60;99.90
15288;DHT22;7745;48.708;9.026;2023-12-28T03:23:37;3.40;99.90
15288;DHT22;7745;48.708;9.026;2023-12-28T03:26:04;3.30;99.90
15288;DHT22;7745;48.708;9.026;2023-12-28T03:28:31;3.30;99.90
15288;DHT22;7745;48.708;9.026;2023-12-28T03:30:57;3.20;99.90
15288;DHT22;7745;48.708;9.026;2023-12-28T03:33:27;3.20;99.90
15288;DHT22;7745;48.708;9.026;2023-12-28T03:35:53;3.30;99.90
15288;DHT22;7745;48.708;9.026;2023-12-28T03:38:21;3.30;99.90
15288;DHT22;7745;48.708;9.026;2023-12-28T03:40:48;3.40;99.90
15288;DHT22;7745;48.708;9.026;2023-12-28T03:43:15;3.50;99.90
15288;DHT22;7745;48.708;9.026;2023-12-28T03:45:42;3.50;99.90
15288;DHT22;7745;48.708;9.026;2023-12-28T03:48:09;3.40;99.90
15288;DHT22;7745;48.708;9.026;2023-12-28T03:50:37;3.40;99.90
15288;DHT22;7745;48.708;9.026;2023-12-28T03:53:04;3.40;99.90
15288;DHT22;7745;48.708;9.026;2023-12-28T03:55:30;3.50;99.90
15288;DHT22;7745;48.708;9.026;2023-12-28T03:57:57;3.60;99.90
15288;DHT22;7745;48.708;9.026;2023-12-28T04:00:24;3.70;99.90
15288;DHT22;7745;48.708;9.026;2023-12-28T04:02:51;3.90;99.90
15288;DHT22;7745;48.708;9.026;2023-12-28T04:05:18;4.10;99.90
15288;DHT22;7745;48.708;9.026;2023-12-28T04:07:46;4.20;99.90
15288;DHT22;7745;48.708;9.026;2023-12-28T04:10:13;4.30;99.90
15288;DHT22;7745;48.708;9.026;2023-12-28T04:12:40;4.30;99.90
15288;DHT22;7745;48.708;9.026;2023-12-28T04:15:06;4.30;99.90
15288;DHT22;7745;48.708;9.026;2023-12-28T04:17:33;4.40;99.90
15288;DHT22;7745;48.708;9.026;2023-12-28T04:20:00;4.40;99.90
15288;DHT22;7745;48.708;9.026;2023-12-28T04:22:27;4.40;99.90
15288;DHT22;7745;48.708;9.026;2023-12-28T04:24:55;4.50;99.90
15288;DHT22;7745;48.708;9.026;2023-12-28T04:27:22;4.50;99.90
15288;DHT22;7745;48.708;9.026;2023-12-28T04:29:49;4.60;99.90
15288;DHT22;7745;48.708;9.026;2023-12-28T04:32:15;4.70;99.90
15288;DHT22;7745;48.708;9.026;2023-12-28T04:34:42;5.30;99.90
15288;DHT22;7745;48.708;9.026;2023-12-28T04:37:09;4.90;99.90
15288;DHT22;7745;48.708;9.026;2023-12-28T04:39:37;5.00;99.90
15288;DHT22;7745;48.708;9.026;2023-12-28T04:42:05;5.20;99.90
15288;DHT22;7745;48.708;9.026;2023-12-28T04:44:32;5.30;99.90
15288;DHT22;7745;48.708;9.026;2023-12-28T04:47:03;5.50;99.90
15288;DHT22;7745;48.708;9.026;2023-12-28T04:49:30;5.70;99.90
15288;DHT22;7745;48.708;9.026;2023-12-28T04:51:57;5.80;99.90
15288;DHT22;7745;48.708;9.026;2023-12-28T04:54:25;5.80;99.90
15288;DHT22;7745;48.708;9.026;2023-12-28T04:56:52;5.90;99.90
15288;DHT22;7745;48.708;9.026;2023-12-28T04:59:21;5.90;99.90
15288;DHT22;7745;48.708;9.026;2023-12-28T05:01:48;5.90;99.90
15288;DHT22;7745;48.708;9.026;2023-12-28T05:04:14;6.00;99.90
15288;DHT22;7745;48.708;9.026;2023-12-28T05:06:41;6.10;99.90
15288;DHT22;7745;48.708;9.026;2023-12-28T05:09:08;6.20;99.90
15288;DHT22;7745;48.708;9.026;2023-12-28T05:11:35;6.30;99.90
15288;DHT22;7745;48.708;9.026;2023-12-28T05:14:02;6.30;99.90
15288;DHT22;7745;48.708;9.026;2023-12-28T05:16:30;6.40;99.90
15288;DHT22;7745;48.708;9.026;2023-12-28T05:18:56;6.40;99.90
15288;DHT22;7745;48.708;9.026;2023-12-28T05:21:23;6.40;99.90
15288;DHT22;7745;48.708;9.026;2023-12-28T05:23:50;6.40;99.90
15288;DHT22;7745;48.708;9.026;2023-12-28T05:26:16;6.50;99.90
15288;DHT22;7745;48.708;9.026;2023-12-28T05:28:43;6.50;99.90
15288;DHT22;7745;48.708;9.026;2023-12-28T05:31:10;6.70;99.90
15288;DHT22;7745;48.708;9.026;2023-12-28T05:33:40;6.80;99.90
15288;DHT22;7745;48.708;9.026;2023-12-28T05:36:07;6.80;99.90
15288;DHT22;7745;48.708;9.026;2023-12-28T05:38:33;6.90;99.90
15288;DHT22;7745;48.708;9.026;2023-12-28T05:41:00;7.00;99.90
15288;DHT22;7745;48.708;9.026;2023-12-28T05:43:27;7.30;99.90
15288;DHT22;7745;48.708;9.026;2023-12-28T05:45:54;7.10;99.90
15288;DHT22;7745;48.708;9.026;2023-12-28T05:48:21;7.20;99.90
15288;DHT22;7745;48.708;9.026;2023-12-28T05:50:49;7.20;99.90
15288;DHT22;7745;48.708;9.026;2023-12-28T05:53:15;7.20;99.90
15288;DHT22;7745;48.708;9.026;2023-12-28T05:55:42;7.60;99.90
15288;DHT22;7745;48.708;9.026;2023-12-28T05:58:09;7.30;99.90
15288;DHT22;7745;48.708;9.026;2023-12-28T06:00:36;7.40;99.90
15288;DHT22;7745;48.708;9.026;2023-12-28T06:03:04;7.30;99.90
15288;DHT22;7745;48.708;9.026;2023-12-28T06:05:31;7.30;99.90
15288;DHT22;7745;48.708;9.026;2023-12-28T06:07:59;7.30;99.90
15288;DHT22;7745;48.708;9.026;2023-12-28T06:10:26;7.20;99.90
15288;DHT22;7745;48.708;9.026;2023-12-28T06:12:53;7.20;99.90
15288;DHT22;7745;48.708;9.026;2023-12-28T06:15:19;7.20;99.90
15288;DHT22;7745;48.708;9.026;2023-12-28T06:17:46;7.20;99.90
15288;DHT22;7745;48.708;9.026;2023-12-28T06:20:13;7.10;99.90
15288;DHT22;7745;48.708;9.026;2023-12-28T06:22:40;7.10;99.90
15288;DHT22;7745;48.708;9.026;2023-12-28T06:25:10;7.10;99.90
15288;DHT22;7745;48.708;9.026;2023-12-28T06:27:37;7.00;99.90
15288;DHT22;7745;48.708;9.026;2023-12-28T06:30:05;7.10;99.90
15288;DHT22;7745;48.708;9.026;2023-12-28T06:32:31;7.20;99.90
15288;DHT22;7745;48.708;9.026;2023-12-28T06:34:58;7.20;99.90
15288;DHT22;7745;48.708;9.026;2023-12-28T06:37:25;7.20;99.90
15288;DHT22;7745;48.708;9.026;2023-12-28T06:39:51;7.20;99.90
15288;DHT22;7745;48.708;9.026;2023-12-28T06:42:20;7.20;99.90
15288;DHT22;7745;48.708;9.026;2023-12-28T06:44:46;7.20;99.90
15288;DHT22;7745;48.708;9.026;2023-12-28T06:47:13;7.20;99.90
15288;DHT22;7745;48.708;9.026;2023-12-28T06:49:40;7.20;99.90
15288;DHT22;7745;48.708;9.026;2023-12-28T06:52:07;7.50;99.90
15288;DHT22;7745;48.708;9.026;2023-12-28T06:54:33;7.30;99.90
15288;DHT22;7745;48.708;9.026;2023-12-28T06:57:00;7.30;99.90
15288;DHT22;7745;48.708;9.026;2023-12-28T06:59:28;7.30;99.90
15288;DHT22;7745;48.708;9.026;2023-12-28T07:01:55;7.40;99.90
15288;DHT22;7745;48.708;9.026;2023-12-28T07:04:22;7.30;99.90
15288;DHT22;7745;48.708;9.026;2023-12-28T07:06:51;7.30;99.90
15288;DHT22;7745;48.708;9.026;2023-12-28T07:09:17;7.70;99.90
15288;DHT22;7745;48.708;9.026;2023-12-28T07:11:44;7.50;99.90
15288;DHT22;7745;48.708;9.026;2023-12-28T07:14:11;7.50;99.90
15288;DHT22;7745;48.708;9.026;2023-12-28T07:16:39;7.50;99.90
15288;DHT22;7745;48.708;9.026;2023-12-28T07:19:06;7.50;99.90
15288;DHT22;7745;48.708;9.026;2023-12-28T07:21:32;7.50;99.90
15288;DHT22;7745;48.708;9.026;2023-12-28T07:23:59;7.70;99.90
15288;DHT22;7745;48.708;9.026;2023-12-28T07:26:26;7.70;99.90
15288;DHT22;7745;48.708;9.026;2023-12-28T07:28:52;7.70;99.90
15288;DHT22;7745;48.708;9.026;2023-12-28T07:31:25;7.80;99.90
15288;DHT22;7745;48.708;9.026;2023-12-28T07:33:53;7.90;99.90
15288;DHT22;7745;48.708;9.026;2023-12-28T07:36:20;7.90;99.90
15288;DHT22;7745;48.708;9.026;2023-12-28T07:38:47;8.20;99.90
15288;DHT22;7745;48.708;9.026;2023-12-28T07:41:14;8.00;99.90
15288;DHT22;7745;48.708;9.026;2023-12-28T07:43:41;8.10;99.90
15288;DHT22;7745;48.708;9.026;2023-12-28T07:46:07;8.20;99.90
15288;DHT22;7745;48.708;9.026;2023-12-28T07:48:34;8.10;99.90
15288;DHT22;7745;48.708;9.026;2023-12-28T07:51:05;8.20;99.90
15288;DHT22;7745;48.708;9.026;2023-12-28T07:53:33;8.10;99.90
15288;DHT22;7745;48.708;9.026;2023-12-28T07:56:00;8.30;99.90
15288;DHT22;7745;48.708;9.026;2023-12-28T07:58:26;8.30;99.90
15288;DHT22;7745;48.708;9.026;2023-12-28T08:00:53;8.50;99.90
15288;DHT22;7745;48.708;9.026;2023-12-28T08:03:20;8.50;99.90
15288;DHT22;7745;48.708;9.026;2023-12-28T08:05:46;8.50;99.90
15288;DHT22;7745;48.708;9.026;2023-12-28T08:08:15;8.50;99.90
15288;DHT22;7745;48.708;9.026;2023-12-28T08:10:41;8.50;99.90
15288;DHT22;7745;48.708;9.026;2023-12-28T08:13:08;8.50;99.90
15288;DHT22;7745;48.708;9.026;2023-12-28T08:15:35;8.50;99.90
15288;DHT22;7745;48.708;9.026;2023-12-28T08:18:02;8.60;99.90
15288;DHT22;7745;48.708;9.026;2023-12-28T08:20:29;8.50;99.90
15288;DHT22;7745;48.708;9.026;2023-12-28T08:22:55;8.60;99.90
15288;DHT22;7745;48.708;9.026;2023-12-28T08:25:23;8.50;99.90
15288;DHT22;7745;48.708;9.026;2023-12-28T08:27:50;8.50;99.90
15288;DHT22;7745;48.708;9.026;2023-12-28T08:30:17;8.40;99.90
15288;DHT22;7745;48.708;9.026;2023-12-28T08:32:43;8.40;99.90
15288;DHT22;7745;48.708;9.026;2023-12-28T08:35:10;8.50;99.90
15288;DHT22;7745;48.708;9.026;2023-12-28T08:37:37;8.90;99.90
15288;DHT22;7745;48.708;9.026;2023-12-28T08:40:05;8.60;99.90
15288;DHT22;7745;48.708;9.026;2023-12-28T08:42:33;8.60;99.90
15288;DHT22;7745;48.708;9.026;2023-12-28T08:45:00;8.60;99.90
15288;DHT22;7745;48.708;9.026;2023-12-28T08:47:27;8.70;99.90
15288;DHT22;7745;48.708;9.026;2023-12-28T08:49:53;8.70;99.90
15288;DHT22;7745;48.708;9.026;2023-12-28T08:52:20;8.80;99.90
15288;DHT22;7745;48.708;9.026;2023-12-28T08:54:47;9.30;99.90
15288;DHT22;7745;48.708;9.026;2023-12-28T08:57:14;9.10;99.90
15288;DHT22;7745;48.708;9.026;2023-12-28T08:59:45;9.20;99.90
15288;DHT22;7745;48.708;9.026;2023-12-28T09:02:13;9.20;99.90
15288;DHT22;7745;48.708;9.026;2023-12-28T09:04:39;9.30;99.90
15288;DHT22;7745;48.708;9.026;2023-12-28T09:07:06;9.30;99.90
15288;DHT22;7745;48.708;9.026;2023-12-28T09:09:33;9.30;99.90
15288;DHT22;7745;48.708;9.026;2023-12-28T09:12:00;9.30;99.90
15288;DHT22;7745;48.708;9.026;2023-12-28T09:14:27;9.30;99.90
15288;DHT22;7745;48.708;9.026;2023-12-28T09:16:55;9.30;99.90
15288;DHT22;7745;48.708;9.026;2023-12-28T09:19:22;9.60;99.90
15288;DHT22;7745;48.708;9.026;2023-12-28T09:21:49;9.50;99.90
15288;DHT22;7745;48.708;9.026;2023-12-28T09:24:16;9.30;99.90
15288;DHT22;7745;48.708;9.026;2023-12-28T09:26:44;9.30;99.90
15288;DHT22;7745;48.708;9.026;2023-12-28T09:29:11;9.30;99.90
15288;DHT22;7745;48.708;9.026;2023-12-28T09:31:38;9.30;99.90
15288;DHT22;7745;48.708;9.026;2023-12-28T09:34:07;9.60;99.90
15288;DHT22;7745;48.708;9.026;2023-12-28T09:36:33;9.40;99.90
15288;DHT22;7745;48.708;9.026;2023-12-28T09:39:00;9.40;99.90
15288;DHT22;7745;48.708;9.026;2023-12-28T09:41:30;9.70;99.90
15288;DHT22;7745;48.708;9.026;2023-12-28T09:44:07;9.40;99.90
15288;DHT22;7745;48.708;9.026;2023-12-28T09:46:34;9.50;99.90
15288;DHT22;7745;48.708;9.026;2023-12-28T09:49:02;9.40;99.90
15288;DHT22;7745;48.708;9.026;2023-12-28T09:51:30;9.40;99.90
15288;DHT22;7745;48.708;9.026;2023-12-28T09:53:57;9.40;99.90
15288;DHT22;7745;48.708;9.026;2023-12-28T09:56:25;9.40;99.90
15288;DHT22;7745;48.708;9.026;2023-12-28T09:58:53;9.50;99.90
15288;DHT22;7745;48.708;9.026;2023-12-28T10:01:21;9.40;99.90
15288;DHT22;7745;48.708;9.026;2023-12-28T10:03:49;9.40;99.90
15288;DHT22;7745;48.708;9.026;2023-12-28T10:06:16;9.40;99.90
15288;DHT22;7745;48.708;9.026;2023-12-28T10:08:48;9.40;99.90
15288;DHT22;7745;48.708;9.026;2023-12-28T10:11:15;9.40;99.90
15288;DHT22;7745;48.708;9.026;2023-12-28T10:13:42;9.50;99.90
15288;DHT22;7745;48.708;9.026;2023-12-28T10:16:10;9.60;99.90
15288;DHT22;7745;48.708;9.026;2023-12-28T10:18:40;9.50;99.90
15288;DHT22;7745;48.708;9.026;2023-12-28T10:21:08;9.60;99.90
15288;DHT22;7745;48.708;9.026;2023-12-28T10:23:35;9.50;99.90
15288;DHT22;7745;48.708;9.026;2023-12-28T10:26:04;9.60;99.90
15288;DHT22;7745;48.708;9.026;2023-12-28T10:28:31;9.70;99.90
15288;DHT22;7745;48.708;9.026;2023-12-28T10:30:59;9.70;99.90
15288;DHT22;7745;48.708;9.026;2023-12-28T10:33:25;9.70;99.90
15288;DHT22;7745;48.708;9.026;2023-12-28T10:35:52;9.80;99.90
15288;DHT22;7745;48.708;9.026;2023-12-28T10:38:20;9.90;99.90
15288;DHT22;7745;48.708;9.026;2023-12-28T10:40:47;10.00;99.90
15288;DHT22;7745;48.708;9.026;2023-12-28T10:43:17;10.00;99.90
15288;DHT22;7745;48.708;9.026;2023-12-28T10:45:47;10.30;99.90
15288;DHT22;7745;48.708;9.026;2023-12-28T10:48:18;10.20;99.90
15288;DHT22;7745;48.708;9.026;2023-12-28T10:50:51;10.20;99.90
15288;DHT22;7745;48.708;9.026;2023-12-28T10:53:30;10.20;99.90
15288;DHT22;7745;48.708;9.026;2023-12-28T10:56:06;10.30;99.90
15288;DHT22;7745;48.708;9.026;2023-12-28T10:58:45;10.30;99.90
15288;DHT22;7745;48.708;9.026;2023-12-28T11:01:17;10.30;99.90
15288;DHT22;7745;48.708;9.026;2023-12-28T11:03:47;10.30;99.90
15288;DHT22;7745;48.708;9.026;2023-12-28T11:06:17;10.30;99.90
15288;DHT22;7745;48.708;9.026;2023-12-28T11:08:45;10.30;99.90
15288;DHT22;7745;48.708;9.026;2023-12-28T11:11:17;10.20;99.90
15288;DHT22;7745;48.708;9.026;2023-12-28T11:13:46;10.20;99.90
15288;DHT22;7745;48.708;9.026;2023-12-28T11:16:14;10.20;99.90
15288;DHT22;7745;48.708;9.026;2023-12-28T11:18:41;10.30;99.90
15288;DHT22;7745;48.708;9.026;2023-12-28T11:21:08;10.30;99.90
15288;DHT22;7745;48.708;9.026;2023-12-28T11:23:35;10.30;99.90
15288;DHT22;7745;48.708;9.026;2023-12-28T11:26:02;10.20;99.90
15288;DHT22;7745;48.708;9.026;2023-12-28T11:28:30;10.30;99.90
15288;DHT22;7745;48.708;9.026;2023-12-28T11:30:58;10.20;99.90
15288;DHT22;7745;48.708;9.026;2023-12-28T11:33:30;10.30;99.90
15288;DHT22;7745;48.708;9.026;2023-12-28T11:35:57;10.20;99.90
15288;DHT22;7745;48.708;9.026;2023-12-28T11:38:25;10.20;99.90
15288;DHT22;7745;48.708;9.026;2023-12-28T11:40:52;10.20;99.90
15288;DHT22;7745;48.708;9.026;2023-12-28T11:43:21;10.20;99.90
15288;DHT22;7745;48.708;9.026;2023-12-28T11:45:50;10.20;99.90
15288;DHT22;7745;48.708;9.026;2023-12-28T11:48:26;10.20;99.90
15288;DHT22;7745;48.708;9.026;2023-12-28T11:50:57;10.20;99.90
15288;DHT22;7745;48.708;9.026;2023-12-28T11:53:24;10.50;99.90
15288;DHT22;7745;48.708;9.026;2023-12-28T11:55:52;10.30;99.90
15288;DHT22;7745;48.708;9.026;2023-12-28T11:58:25;10.30;99.90
15288;DHT22;7745;48.708;9.026;2023-12-28T12:00:52;10.30;99.90
15288;DHT22;7745;48.708;9.026;2023-12-28T12:03:19;10.50;99.90
15288;DHT22;7745;48.708;9.026;2023-12-28T12:05:47;10.30;99.90
15288;DHT22;7745;48.708;9.026;2023-12-28T12:08:14;10.30;99.90
15288;DHT22;7745;48.708;9.026;2023-12-28T12:10:41;10.30;99.90
15288;DHT22;7745;48.708;9.026;2023-12-28T12:13:07;10.30;99.90
15288;DHT22;7745;48.708;9.026;2023-12-28T12:15:34;10.30;99.90
15288;DHT22;7745;48.708;9.026;2023-12-28T12:18:02;10.30;99.90
15288;DHT22;7745;48.708;9.026;2023-12-28T12:20:29;10.40;99.90
15288;DHT22;7745;48.708;9.026;2023-12-28T12:22:59;10.40;99.90
15288;DHT22;7745;48.708;9.026;2023-12-28T12:25:26;10.50;99.90
15288;DHT22;7745;48.708;9.026;2023-12-28T12:27:53;10.50;99.90
15288;DHT22;7745;48.708;9.026;2023-12-28T12:30:20;10.50;99.90
15288;DHT22;7745;48.708;9.026;2023-12-28T12:32:48;10.60;99.90
15288;DHT22;7745;48.708;9.026;2023-12-28T12:35:15;10.60;99.90
15288;DHT22;7745;48.708;9.026;2023-12-28T12:37:43;10.80;99.90
15288;DHT22;7745;48.708;9.026;2023-12-28T12:40:12;10.70;99.90
15288;DHT22;7745;48.708;9.026;2023-12-28T12:42:42;10.70;99.90
15288;DHT22;7745;48.708;9.026;2023-12-28T12:45:09;10.70;99.90
15288;DHT22;7745;48.708;9.026;2023-12-28T12:47:36;10.60;99.90
15288;DHT22;7745;48.708;9.026;2023-12-28T12:50:03;10.60;99.90
15288;DHT22;7745;48.708;9.026;2023-12-28T12:52:30;10.60;99.90
15288;DHT22;7745;48.708;9.026;2023-12-28T12:54:57;10.50;99.90
15288;DHT22;7745;48.708;9.026;2023-12-28T12:57:25;10.50;99.90
15288;DHT22;7745;48.708;9.026;2023-12-28T12:59:53;10.50;99.90
15288;DHT22;7745;48.708;9.026;2023-12-28T13:02:22;10.50;99.90
15288;DHT22;7745;48.708;9.026;2023-12-28T13:04:51;10.40;99.90
15288;DHT22;7745;48.708;9.026;2023-12-28T13:07:18;10.40;99.90
15288;DHT22;7745;48.708;9.026;2023-12-28T13:09:45;10.40;99.90
15288;DHT22;7745;48.708;9.026;2023-12-28T13:12:12;10.40;99.90
15288;DHT22;7745;48.708;9.026;2023-12-28T13:14:40;10.40;99.90
15288;DHT22;7745;48.708;9.026;2023-12-28T13:17:09;10.40;99.90
15288;DHT22;7745;48.708;9.026;2023-12-28T13:19:36;10.40;99.90
15288;DHT22;7745;48.708;9.026;2023-12-28T13:22:02;10.60;99.90
15288;DHT22;7745;48.708;9.026;2023-12-28T13:24:30;10.30;99.90
15288;DHT22;7745;48.708;9.026;2023-12-28T13:26:57;10.20;99.90
15288;DHT22;7745;48.708;9.026;2023-12-28T13:29:24;10.40;99.90
15288;DHT22;7745;48.708;9.026;2023-12-28T13:31:52;10.20;99.90
15288;DHT22;7745;48.708;9.026;2023-12-28T13:34:18;10.30;99.90
15288;DHT22;7745;48.708;9.026;2023-12-28T13:36:45;10.20;99.90
15288;DHT22;7745;48.708;9.026;2023-12-28T13:39:12;10.20;99.90
15288;DHT22;7745;48.708;9.026;2023-12-28T13:41:40;10.20;99.90
15288;DHT22;7745;48.708;9.026;2023-12-28T13:44:07;10.10;99.90
15288;DHT22;7745;48.708;9.026;2023-12-28T13:46:37;10.10;99.90
15288;DHT22;7745;48.708;9.026;2023-12-28T13:49:06;10.10;99.90
15288;DHT22;7745;48.708;9.026;2023-12-28T13:51:33;10.10;99.90
15288;DHT22;7745;48.708;9.026;2023-12-28T13:53:59;10.10;99.90
15288;DHT22;7745;48.708;9.026;2023-12-28T13:56:26;10.10;99.90
15288;DHT22;7745;48.708;9.026;2023-12-28T13:58:52;10.30;99.90
15288;DHT22;7745;48.708;9.026;2023-12-28T14:01:19;10.00;99.90
15288;DHT22;7745;48.708;9.026;2023-12-28T14:03:46;10.00;99.90
15288;DHT22;7745;48.708;9.026;2023-12-28T14:06:18;9.90;99.90
15288;DHT22;7745;48.708;9.026;2023-12-28T14:08:45;9.90;99.90
15288;DHT22;7745;48.708;9.026;2023-12-28T14:11:12;10.00;99.90
15288;DHT22;7745;48.708;9.026;2023-12-28T14:13:39;9.90;99.90
15288;DHT22;7745;48.708;9.026;2023-12-28T14:16:06;9.80;99.90
15288;DHT22;7745;48.708;9.026;2023-12-28T14:18:34;10.00;99.90
15288;DHT22;7745;48.708;9.026;2023-12-28T14:21:00;9.80;99.90
15288;DHT22;7745;48.708;9.026;2023-12-28T14:23:31;9.80;99.90
15288;DHT22;7745;48.708;9.026;2023-12-28T14:25:58;9.80;99.90
15288;DHT22;7745;48.708;9.026;2023-12-28T14:28:25;9.70;99.90
15288;DHT22;7745;48.708;9.026;2023-12-28T14:30:54;9.80;99.90
15288;DHT22;7745;48.708;9.026;2023-12-28T14:33:22;9.80;99.90
15288;DHT22;7745;48.708;9.026;2023-12-28T14:35:49;9.70;99.90
15288;DHT22;7745;48.708;9.026;2023-12-28T14:38:16;9.70;99.90
15288;DHT22;7745;48.708;9.026;2023-12-28T14:40:44;9.80;99.90
15288;DHT22;7745;48.708;9.026;2023-12-28T14:43:13;9.60;99.90
15288;DHT22;7745;48.708;9.026;2023-12-28T14:45:39;9.60;99.90
15288;DHT22;7745;48.708;9.026;2023-12-28T14:48:07;9.60;99.90
15288;DHT22;7745;48.708;9.026;2023-12-28T14:50:34;9.70;99.90
15288;DHT22;7745;48.708;9.026;2023-12-28T14:53:01;9.70;99.90
15288;DHT22;7745;48.708;9.026;2023-12-28T14:55:28;9.70;99.90
15288;DHT22;7745;48.708;9.026;2023-12-28T14:57:56;9.70;99.90
15288;DHT22;7745;48.708;9.026;2023-12-28T15:00:24;9.60;99.90
15288;DHT22;7745;48.708;9.026;2023-12-28T15:02:51;9.60;99.90
15288;DHT22;7745;48.708;9.026;2023-12-28T15:05:18;9.60;99.90
15288;DHT22;7745;48.708;9.026;2023-12-28T15:07:45;9.60;99.90
15288;DHT22;7745;48.708;9.026;2023-12-28T15:10:14;9.50;99.90
15288;DHT22;7745;48.708;9.026;2023-12-28T15:12:42;9.50;99.90
15288;DHT22;7745;48.708;9.026;2023-12-28T15:15:11;9.50;99.90
15288;DHT22;7745;48.708;9.026;2023-12-28T15:17:38;9.50;99.90
15288;DHT22;7745;48.708;9.026;2023-12-28T15:20:07;9.50;99.90
15288;DHT22;7745;48.708;9.026;2023-12-28T15:22:34;9.40;99.90
15288;DHT22;7745;48.708;9.026;2023-12-28T15:25:01;9.40;99.90
15288;DHT22;7745;48.708;9.026;2023-12-28T15:27:29;9.40;99.90
15288;DHT22;7745;48.708;9.026;2023-12-28T15:29:56;9.60;99.90
15288;DHT22;7745;48.708;9.026;2023-12-28T15:32:24;9.30;99.90
15288;DHT22;7745;48.708;9.026;2023-12-28T15:34:51;9.30;99.90
15288;DHT22;7745;48.708;9.026;2023-12-28T15:37:18;9.50;99.90
15288;DHT22;7745;48.708;9.026;2023-12-28T15:39:44;9.30;99.90
15288;DHT22;7745;48.708;9.026;2023-12-28T15:42:11;9.40;99.90
15288;DHT22;7745;48.708;9.026;2023-12-28T15:44:38;9.30;99.90
15288;DHT22;7745;48.708;9.026;2023-12-28T15:47:05;9.30;99.90
15288;DHT22;7745;48.708;9.026;2023-12-28T15:49:34;9.30;99.90
15288;DHT22;7745;48.708;9.026;2023-12-28T15:52:01;9.30;99.90
15288;DHT22;7745;48.708;9.026;2023-12-28T15:54:28;9.20;99.90
15288;DHT22;7745;48.708;9.026;2023-12-28T15:56:54;9.20;99.90
15288;DHT22;7745;48.708;9.026;2023-12-28T15:59:27;9.20;99.90